createdAt,value
2019-05-29T00:01:21.611Z,1.60
2019-05-29T00:03:49.988Z,1.37
2019-05-29T00:06:19.856Z,1.50
2019-05-29T00:08:49.655Z,1.60
2019-05-29T00:11:19.084Z,1.60
2019-05-29T00:13:49.411Z,1.73
2019-05-29T00:16:19.248Z,1.50
2019-05-29T00:18:49.211Z,1.53
2019-05-29T00:21:19.668Z,1.73
2019-05-29T00:23:49.355Z,1.90
2019-05-29T00:26:18.756Z,1.53
2019-05-29T00:28:48.746Z,1.70
2019-05-29T00:31:20.283Z,1.70
2019-05-29T00:33:50.203Z,2.30
2019-05-29T00:36:20.169Z,2.20
2019-05-29T00:38:50.559Z,2.10
2019-05-29T00:41:20.283Z,1.90
2019-05-29T00:43:50.063Z,1.93
2019-05-29T00:46:19.733Z,2.20
2019-05-29T00:48:49.460Z,2.03
2019-05-29T00:51:19.879Z,1.80
2019-05-29T00:53:49.590Z,2.10
2019-05-29T00:56:19.819Z,1.60
2019-05-29T00:58:49.612Z,2.00
2019-05-29T01:01:20.096Z,1.87
2019-05-29T01:06:25.951Z,1.80
2019-05-29T01:08:56.020Z,2.33
2019-05-29T01:11:26.051Z,1.80
2019-05-29T01:13:56.102Z,1.80
2019-05-29T01:16:25.656Z,2.30
2019-05-29T01:18:57.250Z,2.27
2019-05-29T01:21:27.446Z,2.20
2019-05-29T01:23:57.447Z,2.80
2019-05-29T01:26:27.395Z,2.37
2019-05-29T01:28:57.097Z,2.63
2019-05-29T01:31:26.527Z,2.77
2019-05-29T01:33:56.496Z,3.23
2019-05-29T01:36:26.661Z,2.73
2019-05-29T01:38:57.834Z,3.10
2019-05-29T01:41:27.691Z,2.83
2019-05-29T01:43:57.679Z,2.90
2019-05-29T01:46:27.850Z,3.13
2019-05-29T01:48:57.436Z,2.97
2019-05-29T01:51:28.038Z,2.80
2019-05-29T01:53:58.055Z,3.00
2019-05-29T01:56:28.074Z,3.10
2019-05-29T01:58:58.505Z,2.93
2019-05-29T02:01:31.895Z,3.27
2019-05-29T02:04:01.505Z,3.53
2019-05-29T02:06:31.536Z,3.80
2019-05-29T02:09:01.137Z,3.90
2019-05-29T02:11:32.320Z,4.53
2019-05-29T02:14:08.396Z,4.53
2019-05-29T02:16:39.095Z,4.17
2019-05-29T02:19:09.047Z,4.80
2019-05-29T02:21:38.987Z,4.80
2019-05-29T02:24:08.998Z,5.37
2019-05-29T02:26:39.017Z,5.40
2019-05-29T02:29:09.506Z,4.57
2019-05-29T02:31:39.752Z,5.60
2019-05-29T02:34:09.567Z,4.80
2019-05-29T02:36:39.308Z,5.93
2019-05-29T02:39:09.344Z,6.73
2019-05-29T02:41:39.315Z,6.80
2019-05-29T02:44:09.227Z,7.37
2019-05-29T02:46:39.110Z,6.87
2019-05-29T02:49:11.994Z,6.73
2019-05-29T02:51:41.515Z,6.70
2019-05-29T02:54:11.039Z,7.93
2019-05-29T02:56:42.568Z,8.33
2019-05-29T02:59:12.109Z,8.40
2019-05-29T03:01:41.810Z,9.10
2019-05-29T03:04:12.227Z,8.70
2019-05-29T03:06:41.702Z,9.60
2019-05-29T03:09:11.488Z,10.27
2019-05-29T03:11:41.032Z,11.93
2019-05-29T03:16:46.906Z,13.27
2019-05-29T03:19:16.515Z,12.50
2019-05-29T03:21:46.366Z,10.13
2019-05-29T03:24:15.991Z,13.30
2019-05-29T03:26:45.302Z,11.63
2019-05-29T03:29:14.868Z,11.53
2019-05-29T03:31:47.564Z,12.90
2019-05-29T03:34:16.290Z,11.90
2019-05-29T03:36:48.202Z,13.83
2019-05-29T03:39:17.388Z,11.73
2019-05-29T03:41:46.860Z,12.97
2019-05-29T03:44:16.843Z,15.30
2019-05-29T03:46:46.526Z,14.87
2019-05-29T03:49:16.440Z,14.97
2019-05-29T03:51:46.186Z,15.40
2019-05-29T03:54:16.260Z,14.50
2019-05-29T03:56:45.858Z,16.07
2019-05-29T03:59:15.811Z,16.40
2019-05-29T04:01:48.978Z,15.73
2019-05-29T04:04:19.308Z,18.00
2019-05-29T04:06:49.355Z,17.83
2019-05-29T04:09:18.756Z,14.87
2019-05-29T04:11:48.607Z,17.50
2019-05-29T04:14:18.345Z,19.20
2019-05-29T04:16:59.116Z,18.27
2019-05-29T04:19:20.237Z,18.10
2019-05-29T04:21:50.974Z,16.80
2019-05-29T04:24:22.323Z,16.17
2019-05-29T04:26:54.813Z,15.70
2019-05-29T04:29:25.329Z,19.23
2019-05-29T04:31:55.039Z,20.30
2019-05-29T04:34:24.721Z,17.93
2019-05-29T04:36:54.547Z,22.60
2019-05-29T04:39:24.459Z,19.43
2019-05-29T04:41:54.315Z,18.10
2019-05-29T04:44:24.055Z,20.53
2019-05-29T04:47:09.540Z,19.20
2019-05-29T04:49:25.520Z,19.40
2019-05-29T04:51:55.535Z,19.43
2019-05-29T04:54:25.528Z,19.50
2019-05-29T04:56:55.285Z,14.50
2019-05-29T04:59:25.727Z,15.60
2019-05-29T05:01:55.002Z,17.50
2019-05-29T05:06:56.618Z,15.50
2019-05-29T05:09:26.501Z,16.40
2019-05-29T05:11:56.683Z,17.43
2019-05-29T05:14:27.051Z,15.60
2019-05-29T05:16:56.950Z,17.87
2019-05-29T05:19:26.881Z,16.03
2019-05-29T05:21:56.264Z,16.10
2019-05-29T05:24:26.295Z,17.87
2019-05-29T05:26:56.540Z,15.97
2019-05-29T05:29:26.922Z,16.03
2019-05-29T05:31:56.717Z,16.03
2019-05-29T05:34:27.251Z,15.73
2019-05-29T05:36:56.714Z,13.97
2019-05-29T05:39:26.799Z,15.00
2019-05-29T05:41:57.074Z,14.43
2019-05-29T05:44:30.694Z,13.40
2019-05-29T05:47:01.318Z,15.13
2019-05-29T05:49:31.269Z,15.70
2019-05-29T05:52:00.880Z,14.57
2019-05-29T05:54:49.906Z,14.63
2019-05-29T05:57:20.255Z,15.53
2019-05-29T05:59:50.249Z,12.90
2019-05-29T06:02:19.975Z,13.60
2019-05-29T06:04:50.162Z,13.23
2019-05-29T06:07:19.746Z,14.57
2019-05-29T06:09:49.228Z,13.73
2019-05-29T06:12:18.711Z,14.37
2019-05-29T06:14:48.542Z,14.20
2019-05-29T06:17:21.232Z,14.47
2019-05-29T06:19:49.763Z,12.90
2019-05-29T06:22:19.246Z,13.67
2019-05-29T06:24:49.696Z,13.97
2019-05-29T06:27:19.242Z,13.30
2019-05-29T06:29:49.638Z,11.93
2019-05-29T06:32:18.997Z,12.67
2019-05-29T06:34:48.643Z,11.63
2019-05-29T06:37:20.815Z,12.50
2019-05-29T06:39:50.624Z,13.10
2019-05-29T06:42:22.688Z,12.10
2019-05-29T06:44:52.501Z,12.80
2019-05-29T06:47:22.112Z,11.77
2019-05-29T06:49:51.454Z,12.07
2019-05-29T06:52:20.784Z,11.17
2019-05-29T06:54:50.562Z,12.23
2019-05-29T06:57:25.618Z,12.60
2019-05-29T06:59:52.917Z,11.40
2019-05-29T07:02:22.607Z,11.33
2019-05-29T07:04:52.276Z,12.33
2019-05-29T07:07:22.293Z,12.87
2019-05-29T07:09:52.102Z,11.80
2019-05-29T07:12:21.871Z,11.40
2019-05-29T07:14:51.668Z,9.77
2019-05-29T07:17:21.552Z,10.53
2019-05-29T07:20:03.021Z,10.40
2019-05-29T07:22:22.903Z,10.40
2019-05-29T07:25:00.105Z,9.93
2019-05-29T07:27:34.587Z,9.53
2019-05-29T07:30:04.985Z,10.23
2019-05-29T07:32:35.264Z,10.00
2019-05-29T07:35:05.155Z,10.03
2019-05-29T07:37:35.063Z,10.10
2019-05-29T07:40:05.183Z,9.57
2019-05-29T07:42:35.641Z,10.80
2019-05-29T07:45:06.342Z,9.90
2019-05-29T07:47:38.256Z,10.70
2019-05-29T07:50:11.144Z,9.40
2019-05-29T07:52:43.075Z,10.00
2019-05-29T07:55:13.386Z,10.70
2019-05-29T07:57:44.897Z,9.17
2019-05-29T08:00:15.407Z,10.70
2019-05-29T08:02:45.458Z,10.27
2019-05-29T08:05:16.632Z,11.87
2019-05-29T08:07:47.558Z,12.00
2019-05-29T08:10:18.703Z,12.10
2019-05-29T08:12:53.374Z,11.33
2019-05-29T08:15:19.408Z,10.90
2019-05-29T08:17:50.141Z,12.30
2019-05-29T08:20:19.934Z,13.00
2019-05-29T08:22:50.439Z,11.40
2019-05-29T08:25:20.162Z,8.67
2019-05-29T08:27:50.721Z,9.93
2019-05-29T08:30:21.316Z,10.83
2019-05-29T08:32:51.308Z,10.43
2019-05-29T08:35:21.895Z,11.43
2019-05-29T08:37:51.378Z,10.87
2019-05-29T08:40:21.151Z,11.50
2019-05-29T08:42:51.462Z,10.60
2019-05-29T08:45:20.980Z,10.63
2019-05-29T08:47:51.886Z,10.60
2019-05-29T08:50:22.767Z,9.40
2019-05-29T08:52:52.537Z,7.60
2019-05-29T08:55:22.049Z,9.10
2019-05-29T08:57:52.489Z,10.47
2019-05-29T09:00:22.743Z,8.80
2019-05-29T09:02:52.885Z,9.03
2019-05-29T09:05:23.118Z,8.90
2019-05-29T09:07:54.391Z,8.87
2019-05-29T09:10:23.908Z,7.97
2019-05-29T09:13:03.889Z,8.43
2019-05-29T09:15:24.819Z,9.20
2019-05-29T09:17:54.114Z,7.70
2019-05-29T09:20:42.121Z,8.30
2019-05-29T09:22:55.740Z,8.63
2019-05-29T09:25:25.427Z,8.87
2019-05-29T09:27:55.025Z,7.93
2019-05-29T09:30:24.833Z,8.23
2019-05-29T09:32:54.141Z,7.10
2019-05-29T09:35:25.060Z,6.90
2019-05-29T09:37:55.197Z,7.43
2019-05-29T09:40:25.020Z,9.33
2019-05-29T09:42:55.050Z,8.17
2019-05-29T09:45:25.560Z,7.93
2019-05-29T09:47:55.402Z,7.70
2019-05-29T09:53:04.109Z,8.50
2019-05-29T09:55:33.817Z,7.10
2019-05-29T09:58:05.508Z,6.60
2019-05-29T10:03:11.271Z,7.00
2019-05-29T10:05:46.059Z,7.03
2019-05-29T10:08:17.365Z,6.90
2019-05-29T10:10:48.133Z,7.40
2019-05-29T10:13:17.838Z,7.10
2019-05-29T10:15:47.917Z,7.80
2019-05-29T10:18:31.444Z,7.20
2019-05-29T10:20:49.996Z,8.00
2019-05-29T10:23:20.195Z,7.23
2019-05-29T10:25:50.444Z,7.40
2019-05-29T10:28:20.396Z,7.87
2019-05-29T10:30:52.584Z,6.53
2019-05-29T10:33:22.285Z,8.00
2019-05-29T10:35:54.995Z,7.80
2019-05-29T10:38:22.820Z,6.70
2019-05-29T10:41:05.633Z,8.23
2019-05-29T10:43:33.851Z,7.43
2019-05-29T10:45:55.463Z,7.03
2019-05-29T10:48:25.264Z,7.20
2019-05-29T10:50:55.469Z,7.57
2019-05-29T10:53:24.889Z,7.37
2019-05-29T10:55:54.978Z,7.80
2019-05-29T10:58:24.492Z,7.90
2019-05-29T11:00:55.549Z,8.13
2019-05-29T11:03:25.916Z,7.90
2019-05-29T11:05:56.523Z,7.90
2019-05-29T11:08:26.544Z,6.47
2019-05-29T11:10:56.363Z,6.50
2019-05-29T11:13:26.183Z,7.27
2019-05-29T11:15:56.850Z,7.00
2019-05-29T11:18:26.507Z,6.50
2019-05-29T11:20:57.620Z,6.70
2019-05-29T11:23:27.555Z,6.63
2019-05-29T11:25:58.168Z,6.20
2019-05-29T11:28:28.036Z,6.17
2019-05-29T11:30:57.339Z,5.80
2019-05-29T11:33:27.555Z,5.70
2019-05-29T11:36:09.194Z,5.43
2019-05-29T11:38:29.184Z,7.60
2019-05-29T11:41:20.227Z,6.80
2019-05-29T11:43:29.744Z,6.73
2019-05-29T11:45:59.653Z,5.90
2019-05-29T11:48:29.390Z,4.93
2019-05-29T11:50:59.142Z,4.40
2019-05-29T11:53:28.464Z,3.70
2019-05-29T11:55:58.088Z,3.50
2019-05-29T11:58:31.447Z,2.60
2019-05-29T12:00:59.583Z,3.03
2019-05-29T12:03:29.267Z,3.27
2019-05-29T12:05:59.410Z,4.67
2019-05-29T12:08:33.443Z,4.33
2019-05-29T12:11:06.942Z,4.83
2019-05-29T12:13:36.148Z,5.43
2019-05-29T12:16:06.171Z,5.80
2019-05-29T12:18:37.654Z,6.13
2019-05-29T12:21:13.744Z,5.40
2019-05-29T12:23:43.526Z,6.30
2019-05-29T12:26:22.321Z,6.13
2019-05-29T12:28:44.800Z,5.73
2019-05-29T12:31:15.010Z,4.87
2019-05-29T12:33:44.655Z,6.07
2019-05-29T12:36:14.502Z,5.97
2019-05-29T12:38:44.252Z,5.77
2019-05-29T12:41:13.998Z,5.50
2019-05-29T12:43:44.004Z,6.00
2019-05-29T12:46:13.892Z,6.53
2019-05-29T12:48:43.609Z,6.80
2019-05-29T12:51:13.322Z,6.60
2019-05-29T12:53:43.624Z,6.33
2019-05-29T12:56:13.643Z,6.23
2019-05-29T12:58:44.009Z,6.43
2019-05-29T13:01:14.204Z,6.20
2019-05-29T13:03:45.836Z,6.87
2019-05-29T13:06:17.596Z,5.90
2019-05-29T13:08:47.750Z,5.40
2019-05-29T13:11:17.820Z,4.67
2019-05-29T13:13:47.818Z,4.70
2019-05-29T13:16:17.997Z,4.33
2019-05-29T13:18:54.738Z,4.43
2019-05-29T13:21:24.651Z,4.57
2019-05-29T13:23:56.104Z,4.07
2019-05-29T13:26:25.879Z,3.77
2019-05-29T13:28:55.604Z,3.90
2019-05-29T13:31:25.676Z,3.90
2019-05-29T13:33:55.995Z,3.63
2019-05-29T13:36:25.629Z,4.20
2019-05-29T13:38:55.961Z,5.90
2019-05-29T13:41:25.638Z,6.10
2019-05-29T13:43:56.391Z,5.90
2019-05-29T13:46:27.162Z,4.70
2019-05-29T13:48:57.153Z,5.30
2019-05-29T13:51:26.951Z,3.47
2019-05-29T13:54:03.592Z,3.40
2019-05-29T13:56:32.199Z,3.33
2019-05-29T13:59:02.077Z,3.90
2019-05-29T14:01:32.098Z,3.10
2019-05-29T14:04:02.486Z,3.67
2019-05-29T14:06:32.186Z,3.20
2019-05-29T14:09:02.897Z,3.00
2019-05-29T14:11:32.777Z,3.03
2019-05-29T14:14:04.166Z,3.30
2019-05-29T14:16:34.637Z,3.17
2019-05-29T14:19:09.075Z,3.13
2019-05-29T14:21:39.418Z,3.27
2019-05-29T14:24:28.224Z,3.00
2019-05-29T14:26:46.375Z,2.80
2019-05-29T14:29:16.394Z,2.77
2019-05-29T14:31:46.123Z,2.87
2019-05-29T14:34:16.885Z,2.60
2019-05-29T14:36:46.935Z,2.80
2019-05-29T14:39:16.949Z,2.67
2019-05-29T14:41:46.798Z,3.10
2019-05-29T14:44:18.705Z,2.60
2019-05-29T14:46:50.065Z,3.10
2019-05-29T14:49:21.720Z,3.00
2019-05-29T14:51:51.819Z,3.50
2019-05-29T14:54:22.385Z,3.90
2019-05-29T14:56:53.517Z,3.10
2019-05-29T14:59:25.151Z,3.13
2019-05-29T15:01:55.723Z,3.60
2019-05-29T15:04:32.946Z,3.60
2019-05-29T15:07:03.730Z,4.40
2019-05-29T15:09:33.489Z,3.10
2019-05-29T15:19:49.350Z,2.70
2019-05-29T15:22:20.372Z,2.30
2019-05-29T15:25:04.081Z,2.57
2019-05-29T15:27:21.395Z,2.40
2019-05-29T15:29:51.444Z,2.40
2019-05-29T15:32:21.383Z,2.60
2019-05-29T15:34:51.120Z,2.87
2019-05-29T15:37:22.561Z,2.97
2019-05-29T15:39:52.618Z,2.93
2019-05-29T15:42:22.441Z,2.17
2019-05-29T15:44:52.345Z,3.10
2019-05-29T15:47:22.344Z,2.53
2019-05-29T15:49:52.409Z,2.30
2019-05-29T15:52:22.548Z,1.97
2019-05-29T15:54:52.502Z,2.50
2019-05-29T15:57:22.416Z,2.40
2019-05-29T15:59:52.856Z,1.73
2019-05-29T16:02:23.055Z,1.60
2019-05-29T16:04:55.429Z,1.67
2019-05-29T16:07:25.983Z,1.80
2019-05-29T16:16:17.331Z,1.93
2019-05-29T16:18:47.739Z,2.03
2019-05-29T16:21:18.820Z,2.30
2019-05-29T16:23:49.378Z,2.40
2019-05-29T16:26:20.036Z,2.07
2019-05-29T16:28:50.904Z,3.30
2019-05-29T16:31:20.512Z,2.17
2019-05-29T16:33:50.101Z,2.10
2019-05-29T16:36:22.365Z,2.13
2019-05-29T16:38:52.227Z,2.00
2019-05-29T16:41:22.007Z,2.03
2019-05-29T16:43:51.539Z,1.90
2019-05-29T16:46:24.022Z,2.13
2019-05-29T16:48:53.055Z,2.00
2019-05-29T16:51:23.117Z,2.30
2019-05-29T16:53:52.709Z,2.37
2019-05-29T16:56:23.323Z,2.00
2019-05-29T16:58:53.316Z,2.07
2019-05-29T17:01:24.041Z,2.30
2019-05-29T17:03:54.251Z,2.53
2019-05-29T17:06:24.407Z,2.60
2019-05-29T17:08:54.609Z,2.60
2019-05-29T17:11:25.197Z,2.43
2019-05-29T17:17:36.317Z,2.63
2019-05-29T17:20:06.786Z,2.60
2019-05-29T17:22:36.632Z,2.87
2019-05-29T17:25:06.581Z,3.00
2019-05-29T17:27:37.301Z,2.50
2019-05-29T17:30:08.005Z,2.97
2019-05-29T17:32:38.305Z,2.90
2019-05-29T17:35:08.767Z,3.30
2019-05-29T17:37:38.687Z,2.33
2019-05-29T17:40:08.534Z,3.13
2019-05-29T17:42:38.660Z,2.77
2019-05-29T17:45:13.487Z,2.97
2019-05-29T17:47:44.185Z,3.00
2019-05-29T17:50:19.052Z,3.20
2019-05-29T17:52:47.315Z,2.53
2019-05-29T17:55:19.971Z,2.87
2019-05-29T17:57:50.042Z,2.53
2019-05-29T18:00:24.828Z,2.90
2019-05-29T18:02:58.184Z,3.60
2019-05-29T18:05:28.042Z,3.23
2019-05-29T18:08:01.584Z,3.20
2019-05-29T18:10:29.906Z,2.57
2019-05-29T18:13:02.609Z,3.00
2019-05-29T18:15:32.654Z,2.97
2019-05-29T18:18:03.268Z,3.30
2019-05-29T18:20:38.985Z,3.20
2019-05-29T18:23:09.019Z,3.10
2019-05-29T18:25:38.943Z,3.20
2019-05-29T18:28:08.424Z,2.90
2019-05-29T18:30:38.569Z,3.50
2019-05-29T18:33:08.144Z,2.93
2019-05-29T18:35:38.651Z,2.70
2019-05-29T18:38:08.666Z,2.67
2019-05-29T18:40:38.727Z,3.17
2019-05-29T18:43:09.516Z,2.90
2019-05-29T18:45:39.413Z,3.47
2019-05-29T18:48:10.894Z,3.30
2019-05-29T18:50:44.267Z,3.60
2019-05-29T18:53:13.014Z,3.43
2019-05-29T18:55:43.427Z,3.63
2019-05-29T18:58:13.091Z,3.17
2019-05-29T19:00:47.904Z,3.30
2019-05-29T19:03:18.318Z,3.10
2019-05-29T19:16:21.913Z,3.60
2019-05-29T19:18:52.228Z,4.10
2019-05-29T19:21:22.349Z,5.20
2019-05-29T19:23:52.276Z,5.73
2019-05-29T19:26:22.647Z,4.00
2019-05-29T19:28:53.424Z,3.30
2019-05-29T19:31:23.476Z,2.70
2019-05-29T19:33:53.312Z,3.47
2019-05-29T19:36:23.599Z,5.07
2019-05-29T19:38:53.871Z,4.80
2019-05-29T19:41:24.201Z,2.87
2019-05-29T19:43:54.240Z,2.77
2019-05-29T19:46:24.462Z,3.83
2019-05-29T19:48:56.627Z,3.07
2019-05-29T19:51:27.312Z,2.40
2019-05-29T19:53:57.202Z,2.60
2019-05-29T19:56:27.567Z,2.30
2019-05-29T19:58:57.462Z,2.80
2019-05-29T20:01:32.752Z,3.90
2019-05-29T20:03:58.881Z,2.53
2019-05-29T20:06:28.856Z,2.47
2019-05-29T20:08:58.766Z,3.03
2019-05-29T20:11:29.411Z,3.00
2019-05-29T20:13:59.799Z,2.70
2019-05-29T20:16:30.065Z,2.50
2019-05-29T20:19:00.342Z,2.47
2019-05-29T20:21:30.581Z,2.70
2019-05-29T20:24:00.646Z,2.90
2019-05-29T20:26:30.864Z,2.30
2019-05-29T20:29:02.903Z,2.63
2019-05-29T20:31:34.510Z,3.80
2019-05-29T20:34:10.935Z,2.30
2019-05-29T20:36:41.583Z,2.30
2019-05-29T20:39:11.711Z,2.50
2019-05-29T20:41:43.272Z,3.03
2019-05-29T20:44:12.680Z,2.90
2019-05-29T20:46:43.030Z,3.60
2019-05-29T20:49:12.762Z,2.87
2019-05-29T20:51:43.494Z,3.00
2019-05-29T20:54:13.243Z,3.67
2019-05-29T20:56:43.284Z,3.87
2019-05-29T20:59:12.786Z,4.00
2019-05-29T21:01:46.031Z,4.13
2019-05-29T21:04:13.998Z,3.87
2019-05-29T21:06:43.899Z,4.47
2019-05-29T21:09:13.913Z,4.40
2019-05-29T21:11:44.322Z,4.50
2019-05-29T21:14:14.235Z,8.70
2019-05-29T21:16:44.492Z,8.03
2019-05-29T21:19:14.407Z,6.00
2019-05-29T21:21:44.629Z,6.80
2019-05-29T21:24:14.440Z,5.40
2019-05-29T21:26:45.106Z,5.77
2019-05-29T21:29:14.672Z,3.50
2019-05-29T21:31:45.680Z,3.40
2019-05-29T21:34:15.704Z,3.43
2019-05-29T21:36:46.410Z,3.47
2019-05-29T21:39:16.732Z,3.47
2019-05-29T21:41:46.731Z,2.90
2019-05-29T21:44:16.844Z,3.17
2019-05-29T21:46:47.260Z,3.27
2019-05-29T21:49:17.124Z,3.00
2019-05-29T21:51:47.967Z,3.30
2019-05-29T21:54:19.042Z,3.50
2019-05-29T21:56:49.196Z,3.70
2019-05-29T21:59:19.124Z,3.30
2019-05-29T22:01:49.369Z,3.50
2019-05-29T22:04:18.985Z,2.93
2019-05-29T22:06:49.006Z,3.37
2019-05-29T22:09:18.933Z,4.63
2019-05-29T22:11:48.696Z,5.90
2019-05-29T22:14:18.916Z,4.30
2019-05-29T22:16:48.864Z,3.40
2019-05-29T22:19:19.107Z,3.60
2019-05-29T22:21:48.918Z,4.00
2019-05-29T22:24:18.647Z,4.07
2019-05-29T22:26:48.626Z,3.50
2019-05-29T22:31:55.702Z,3.90
2019-05-29T22:34:25.185Z,3.73
2019-05-29T22:36:55.457Z,4.37
2019-05-29T22:39:26.877Z,4.10
2019-05-29T22:41:57.571Z,6.07
2019-05-29T22:44:27.167Z,7.37
2019-05-29T22:46:57.819Z,6.03
2019-05-29T22:49:28.210Z,7.30
2019-05-29T22:51:57.904Z,5.30
2019-05-29T22:54:27.787Z,7.67
2019-05-29T22:56:57.945Z,6.57
2019-05-29T22:59:31.887Z,4.93
2019-05-29T23:02:00.353Z,5.67
2019-05-29T23:04:30.286Z,4.10
2019-05-29T23:07:00.453Z,4.43
2019-05-29T23:09:30.354Z,3.97
2019-05-29T23:12:00.414Z,3.77
2019-05-29T23:14:30.340Z,3.97
2019-05-29T23:17:00.627Z,4.20
2019-05-29T23:19:30.985Z,3.10
2019-05-29T23:22:04.539Z,3.20
2019-05-29T23:24:34.986Z,3.40
2019-05-29T23:27:05.482Z,3.63
2019-05-29T23:29:48.618Z,3.33
2019-05-29T23:32:07.075Z,3.80
2019-05-29T23:34:36.994Z,3.40
2019-05-29T23:37:07.225Z,3.30
2019-05-29T23:39:37.858Z,3.30
2019-05-29T23:42:07.799Z,3.47
2019-05-29T23:44:38.166Z,3.00
2019-05-29T23:47:08.128Z,3.60
2019-05-29T23:49:38.466Z,4.10
2019-05-29T23:52:08.409Z,3.70
2019-05-29T23:54:38.455Z,3.63
2019-05-29T23:57:08.355Z,3.70
2019-05-29T23:59:38.435Z,3.10
